Morehead, Kansas
Current Conditions -  °F | °C
As of 3:34 PM on Saturday 22 Nov 2014 (Local Time) from KPPF Reporting Station
Overcast Overcast  
Wind Chill: 58°   Ceiling: 1500
Heat Index: 58°   Visibility: 10mi
Dew Point: 53°   Wind: 14mph
Humidity: 84%   Direction: 180°S
Pressure: 29.83"   Gusts: 23mph
Location:  37.4373°N, 95.4594°W
Report Text: KPPF 222134Z AUTO 18012G20KT 10SM OVC015 14/12 A2983 RMK AO2 T01440117
Loading
Personal Weather Stations






























Interactive Weather Map New forecast layout! Learn more

10-Day Weather Forecast

Advertisements
Track Severe Weather on mobile